createdAt,value
2022-11-28T00:00:18.827Z,37.33
2022-11-28T00:03:20.148Z,35.10
2022-11-28T00:06:21.943Z,37.92
2022-11-28T00:09:23.718Z,38.05
2022-11-28T00:12:24.578Z,40.38
2022-11-28T00:15:25.322Z,36.15
2022-11-28T00:18:27.278Z,34.08
2022-11-28T00:21:29.009Z,31.70
2022-11-28T00:24:30.178Z,30.45
2022-11-28T00:27:31.026Z,32.90
2022-11-28T00:30:31.758Z,33.33
2022-11-28T00:33:34.011Z,35.42
2022-11-28T00:36:35.385Z,32.88
2022-11-28T00:39:36.183Z,31.98
2022-11-28T00:42:36.971Z,33.72
2022-11-28T00:45:38.078Z,29.98
2022-11-28T00:48:39.271Z,31.92
2022-11-28T00:51:40.133Z,31.95
2022-11-28T00:54:41.205Z,32.72
2022-11-28T00:57:42.311Z,32.00
2022-11-28T01:00:43.129Z,30.13
2022-11-28T01:03:44.515Z,26.90
2022-11-28T01:06:49.718Z,33.70
2022-11-28T01:09:50.639Z,29.27
2022-11-28T01:12:51.894Z,29.70
2022-11-28T01:15:53.468Z,31.58
2022-11-28T01:18:54.646Z,31.73
2022-11-28T01:21:55.550Z,31.67
2022-11-28T01:24:56.278Z,31.13
2022-11-28T01:27:56.976Z,34.10
2022-11-28T01:31:02.469Z,30.33
2022-11-28T01:34:03.396Z,28.70
2022-11-28T01:37:04.160Z,31.73
2022-11-28T01:40:06.937Z,29.25
2022-11-28T01:43:10.679Z,36.03
2022-11-28T01:46:11.970Z,29.67
2022-11-28T01:49:31.885Z,30.30
2022-11-28T01:52:36.793Z,26.10
2022-11-28T01:55:53.031Z,32.42
2022-11-28T01:59:03.943Z,34.95
2022-11-28T02:02:13.344Z,37.83
2022-11-28T02:05:16.188Z,33.95
2022-11-28T02:08:17.411Z,36.63
2022-11-28T02:12:02.839Z,41.72
2022-11-28T02:15:36.429Z,41.35
2022-11-28T02:19:17.251Z,38.72
2022-11-28T02:22:31.868Z,35.97
2022-11-28T02:26:24.211Z,36.47
2022-11-28T02:30:03.873Z,37.28
2022-11-28T02:33:16.462Z,32.85
2022-11-28T02:36:36.519Z,35.65
2022-11-28T02:40:14.096Z,36.60
2022-11-28T02:43:38.105Z,39.33
2022-11-28T02:47:03.362Z,34.20
2022-11-28T02:50:34.099Z,42.65
2022-11-28T02:53:37.750Z,38.47
2022-11-28T02:56:38.970Z,42.33
2022-11-28T02:59:39.981Z,35.45
2022-11-28T03:02:43.683Z,34.97
2022-11-28T03:06:10.974Z,37.90
2022-11-28T03:09:37.478Z,38.72
2022-11-28T03:13:03.260Z,37.65
2022-11-28T03:16:29.021Z,38.03
2022-11-28T03:19:42.935Z,41.40
2022-11-28T03:23:22.113Z,41.80
2022-11-28T03:26:48.361Z,44.85
2022-11-28T03:30:30.050Z,39.20
2022-11-28T03:33:50.858Z,41.55
2022-11-28T03:37:00.508Z,42.75
2022-11-28T03:40:08.899Z,46.53
2022-11-28T03:43:17.672Z,42.35
2022-11-28T03:46:23.881Z,41.55
2022-11-28T03:49:42.115Z,42.72
2022-11-28T03:53:04.139Z,44.33
2022-11-28T03:56:17.507Z,41.63
2022-11-28T03:59:43.858Z,41.13
2022-11-28T04:03:27.088Z,42.25
2022-11-28T04:06:51.006Z,42.92
2022-11-28T04:10:15.977Z,41.92
2022-11-28T04:13:49.041Z,43.42
2022-11-28T04:17:06.053Z,42.20
2022-11-28T04:23:47.099Z,42.33
2022-11-28T04:27:07.278Z,43.53
2022-11-28T04:30:11.164Z,45.17
2022-11-28T04:33:17.495Z,41.95
2022-11-28T04:36:24.106Z,42.13
2022-11-28T04:39:29.408Z,48.13
2022-11-28T04:42:40.003Z,43.65
2022-11-28T04:45:51.362Z,41.75
2022-11-28T04:48:53.202Z,39.75
2022-11-28T04:52:22.647Z,38.85
2022-11-28T04:55:49.299Z,41.38
2022-11-28T04:58:51.294Z,44.13
2022-11-28T05:01:52.185Z,39.47
2022-11-28T05:04:55.893Z,39.08
2022-11-28T05:07:59.782Z,39.92
2022-11-28T05:11:00.955Z,39.78
2022-11-28T05:14:01.666Z,38.45
2022-11-28T05:17:02.439Z,41.58
2022-11-28T05:20:05.038Z,47.00
2022-11-28T05:23:06.707Z,41.85
2022-11-28T05:26:14.513Z,42.63
2022-11-28T05:29:15.786Z,39.50
2022-11-28T05:32:16.435Z,40.72
2022-11-28T05:35:17.280Z,40.45
2022-11-28T05:38:18.057Z,45.10
2022-11-28T05:41:32.634Z,40.10
2022-11-28T05:44:33.364Z,42.97
2022-11-28T05:47:34.612Z,44.85
2022-11-28T05:50:39.771Z,37.95
2022-11-28T05:53:41.011Z,53.17
2022-11-28T05:56:42.593Z,43.63
2022-11-28T05:59:44.014Z,39.90
2022-11-28T06:02:45.080Z,41.28
2022-11-28T06:05:46.152Z,48.58
2022-11-28T06:08:49.590Z,40.83
2022-11-28T06:11:50.294Z,42.00
2022-11-28T06:14:51.566Z,51.42
2022-11-28T06:17:52.268Z,59.70
2022-11-28T06:20:53.084Z,42.88
2022-11-28T06:23:54.420Z,65.68
2022-11-28T06:26:55.423Z,66.60
2022-11-28T06:29:56.425Z,47.63
2022-11-28T06:32:57.555Z,43.25
2022-11-28T06:36:04.253Z,40.30
2022-11-28T06:39:06.299Z,41.17
2022-11-28T06:42:07.268Z,57.38
2022-11-28T06:45:09.398Z,57.03
2022-11-28T06:48:10.224Z,36.70
2022-11-28T06:51:13.263Z,45.05
2022-11-28T06:54:14.371Z,41.80
2022-11-28T06:57:15.348Z,44.33
2022-11-28T07:00:17.547Z,51.10
2022-11-28T07:03:18.582Z,56.53
2022-11-28T07:06:20.570Z,51.70
2022-11-28T07:09:21.811Z,48.08
2022-11-28T07:12:22.642Z,43.55
2022-11-28T07:15:24.311Z,47.92
2022-11-28T07:18:25.473Z,46.55
2022-11-28T07:21:28.376Z,44.10
2022-11-28T07:24:30.314Z,46.50
2022-11-28T07:27:31.515Z,48.05
2022-11-28T07:30:32.500Z,49.20
2022-11-28T07:33:35.464Z,50.60
2022-11-28T07:36:37.408Z,53.38
2022-11-28T07:39:39.172Z,48.30
2022-11-28T07:42:40.152Z,48.67
2022-11-28T07:46:00.127Z,55.10
2022-11-28T07:49:02.351Z,46.97
2022-11-28T07:52:03.930Z,47.42
2022-11-28T07:55:05.887Z,48.90
2022-11-28T07:58:06.969Z,49.03
2022-11-28T08:01:23.387Z,55.90
2022-11-28T08:04:24.458Z,58.40
2022-11-28T08:07:25.979Z,48.72
2022-11-28T08:10:27.163Z,47.42
2022-11-28T08:13:28.854Z,50.67
2022-11-28T08:16:30.515Z,53.17
2022-11-28T08:19:34.986Z,54.97
2022-11-28T08:22:36.157Z,47.70
2022-11-28T08:25:37.370Z,44.95
2022-11-28T08:28:38.367Z,47.28
2022-11-28T08:31:40.801Z,44.40
2022-11-28T08:34:41.889Z,54.35
2022-11-28T08:37:42.726Z,43.28
2022-11-28T08:40:43.574Z,44.90
2022-11-28T08:43:45.557Z,42.28
2022-11-28T08:46:46.587Z,48.47
2022-11-28T08:49:47.970Z,47.60
2022-11-28T08:52:48.997Z,49.35
2022-11-28T08:55:50.511Z,38.85
2022-11-28T08:58:51.493Z,40.05
2022-11-28T09:01:55.634Z,35.80
2022-11-28T09:04:56.878Z,35.45
2022-11-28T09:07:58.544Z,31.70
2022-11-28T09:10:59.560Z,25.60
2022-11-28T09:14:00.763Z,30.73
2022-11-28T09:17:01.588Z,29.92
2022-11-28T09:20:04.526Z,26.27
2022-11-28T09:23:06.111Z,28.38
2022-11-28T09:26:20.353Z,30.27
2022-11-28T09:29:21.234Z,27.25
2022-11-28T09:32:22.107Z,30.60
2022-11-28T09:35:23.605Z,22.98
2022-11-28T09:38:27.678Z,25.70
2022-11-28T09:42:14.578Z,24.23
2022-11-28T09:48:51.277Z,27.85
2022-11-28T09:51:57.282Z,26.08
2022-11-28T09:55:38.942Z,27.80
2022-11-28T09:58:56.208Z,23.17
2022-11-28T10:02:23.700Z,22.63
2022-11-28T10:08:55.766Z,24.88
2022-11-28T10:12:24.086Z,22.60
2022-11-28T10:16:19.807Z,26.42
2022-11-28T10:19:57.746Z,23.83
2022-11-28T10:23:30.401Z,23.17
2022-11-28T10:26:38.352Z,23.00
2022-11-28T10:29:46.426Z,19.75
2022-11-28T10:33:04.954Z,22.55
2022-11-28T10:36:22.367Z,19.92
2022-11-28T10:39:26.569Z,22.17
2022-11-28T10:42:41.590Z,22.42
2022-11-28T10:46:03.889Z,18.13
2022-11-28T10:49:26.916Z,20.60
2022-11-28T10:52:44.283Z,19.52
2022-11-28T10:56:18.124Z,18.70
2022-11-28T11:00:18.434Z,18.65
2022-11-28T11:03:30.059Z,20.25
2022-11-28T11:06:41.390Z,18.58
2022-11-28T11:09:48.626Z,20.17
2022-11-28T11:12:53.392Z,17.55
2022-11-28T11:16:08.153Z,18.15
2022-11-28T11:19:37.765Z,20.05
2022-11-28T11:22:38.874Z,19.48
2022-11-28T11:25:58.447Z,20.17
2022-11-28T11:29:00.103Z,17.50
2022-11-28T11:32:06.108Z,17.05
2022-11-28T11:35:17.154Z,18.67
2022-11-28T11:38:32.373Z,16.63
2022-11-28T11:41:36.357Z,18.48
2022-11-28T11:44:37.906Z,15.98
2022-11-28T11:47:44.934Z,16.63
2022-11-28T11:50:54.726Z,17.53
2022-11-28T11:54:26.554Z,16.83
2022-11-28T11:57:39.015Z,18.20
2022-11-28T12:00:42.371Z,18.92
2022-11-28T12:03:58.567Z,15.40
2022-11-28T12:07:06.492Z,15.02
2022-11-28T12:10:16.610Z,14.32
2022-11-28T12:13:22.322Z,13.77
2022-11-28T12:17:00.757Z,13.48
2022-11-28T12:20:32.001Z,14.15
2022-11-28T12:24:02.711Z,14.63
2022-11-28T12:27:34.132Z,13.75
2022-11-28T12:31:18.222Z,13.77
2022-11-28T12:34:45.367Z,14.43
2022-11-28T12:38:15.751Z,13.80
2022-11-28T12:41:45.855Z,15.85
2022-11-28T12:45:18.657Z,14.73
2022-11-28T12:48:41.339Z,16.15
2022-11-28T12:52:16.504Z,15.82
2022-11-28T12:55:20.099Z,14.70
2022-11-28T12:59:03.500Z,14.73
2022-11-28T13:02:42.023Z,16.08
2022-11-28T13:06:24.980Z,15.98
2022-11-28T13:09:38.680Z,16.15
2022-11-28T13:13:03.924Z,17.73
2022-11-28T13:16:27.396Z,16.95
2022-11-28T13:19:52.782Z,15.32
2022-11-28T13:23:04.226Z,16.15
2022-11-28T13:26:38.131Z,18.42
2022-11-28T13:30:13.516Z,14.95
2022-11-28T13:33:28.473Z,17.05
2022-11-28T13:40:33.947Z,15.48
2022-11-28T13:43:58.275Z,16.00
2022-11-28T13:47:27.828Z,14.93
2022-11-28T13:50:28.833Z,15.68
2022-11-28T13:53:30.235Z,16.63
2022-11-28T13:56:31.976Z,14.60
2022-11-28T13:59:35.520Z,15.90
2022-11-28T14:02:52.660Z,14.55
2022-11-28T14:09:09.308Z,15.05
2022-11-28T14:12:51.487Z,14.48
2022-11-28T14:16:17.818Z,13.80
2022-11-28T14:19:58.160Z,15.80
2022-11-28T14:23:50.161Z,15.07
2022-11-28T14:27:01.052Z,15.50
2022-11-28T14:30:04.029Z,15.77
2022-11-28T14:33:33.240Z,15.48
2022-11-28T14:36:41.999Z,16.42
2022-11-28T14:39:43.195Z,18.02
2022-11-28T14:43:00.279Z,24.65
2022-11-28T14:46:31.756Z,21.85
2022-11-28T14:49:33.174Z,20.15
2022-11-28T14:52:40.272Z,20.10
2022-11-28T14:55:42.975Z,17.95
2022-11-28T14:58:55.560Z,19.20
2022-11-28T15:02:12.670Z,20.65
2022-11-28T15:05:27.886Z,21.48
2022-11-28T15:08:59.043Z,27.73
2022-11-28T15:12:41.619Z,24.80
2022-11-28T15:15:51.217Z,21.35
2022-11-28T15:19:07.539Z,23.20
2022-11-28T15:22:29.410Z,21.65
2022-11-28T15:25:40.116Z,26.77
2022-11-28T15:28:43.412Z,22.20
2022-11-28T15:31:48.506Z,22.10
2022-11-28T15:35:09.235Z,19.48
2022-11-28T15:38:15.415Z,19.85
2022-11-28T15:41:24.082Z,19.10
2022-11-28T15:44:25.275Z,19.33
2022-11-28T15:47:28.727Z,18.67
2022-11-28T15:50:33.554Z,19.58
2022-11-28T15:53:42.513Z,24.38
2022-11-28T15:56:57.523Z,23.67
2022-11-28T15:59:58.974Z,18.27
2022-11-28T16:03:01.290Z,21.08
2022-11-28T16:06:05.954Z,19.92
2022-11-28T16:09:31.190Z,24.85
2022-11-28T16:12:32.987Z,25.15
2022-11-28T16:15:33.959Z,23.55
2022-11-28T16:18:35.022Z,29.88
2022-11-28T16:21:57.124Z,28.05
2022-11-28T16:25:11.875Z,31.27
2022-11-28T16:28:37.355Z,44.60
2022-11-28T16:31:38.773Z,44.88
2022-11-28T16:34:53.519Z,36.65
2022-11-28T16:38:06.363Z,22.83
2022-11-28T16:41:22.558Z,29.35
2022-11-28T16:44:25.252Z,31.80
2022-11-28T16:47:33.235Z,25.77
2022-11-28T16:50:35.272Z,24.08
2022-11-28T16:53:52.162Z,19.77
2022-11-28T16:57:10.947Z,22.57
2022-11-28T17:00:12.845Z,23.55
2022-11-28T17:03:49.547Z,24.48
2022-11-28T17:06:53.871Z,21.52
2022-11-28T17:09:54.863Z,25.27
2022-11-28T17:12:55.942Z,24.02
2022-11-28T17:15:56.907Z,23.85
2022-11-28T17:18:57.911Z,26.75
2022-11-28T17:22:00.278Z,21.13
2022-11-28T17:25:03.960Z,29.60
2022-11-28T17:28:05.531Z,31.48
2022-11-28T17:31:06.975Z,35.55
2022-11-28T17:34:22.705Z,32.22
2022-11-28T17:37:23.647Z,28.60
2022-11-28T17:40:33.552Z,23.23
2022-11-28T17:43:38.878Z,32.90
2022-11-28T17:46:40.316Z,21.83
2022-11-28T17:49:46.246Z,25.90
2022-11-28T17:52:47.936Z,29.23
2022-11-28T17:55:59.063Z,19.25
2022-11-28T17:59:01.486Z,22.38
2022-11-28T18:02:02.492Z,22.85
2022-11-28T18:05:04.448Z,21.75
2022-11-28T18:08:06.009Z,24.48
2022-11-28T18:11:12.043Z,24.27
2022-11-28T18:14:13.774Z,29.85
2022-11-28T18:17:14.791Z,26.17
2022-11-28T18:20:16.190Z,27.63
2022-11-28T18:23:16.937Z,24.75
2022-11-28T18:26:23.863Z,26.08
2022-11-28T18:29:25.707Z,21.85
2022-11-28T18:32:27.775Z,33.35
2022-11-28T18:35:29.140Z,27.50
2022-11-28T18:38:30.386Z,22.67
2022-11-28T18:41:31.920Z,18.75
2022-11-28T18:44:33.734Z,26.75
2022-11-28T18:47:36.319Z,22.48
2022-11-28T18:50:37.062Z,22.83
2022-11-28T18:53:39.040Z,20.08
2022-11-28T18:56:40.367Z,18.65
2022-11-28T18:59:45.588Z,20.70
2022-11-28T19:02:52.292Z,25.38
2022-11-28T19:05:53.425Z,22.63
2022-11-28T19:08:58.952Z,23.48
2022-11-28T19:12:00.503Z,26.70
2022-11-28T19:15:03.033Z,21.33
2022-11-28T19:18:04.027Z,22.83
2022-11-28T19:21:11.584Z,23.63
2022-11-28T19:24:13.463Z,25.85
2022-11-28T19:27:14.878Z,21.85
2022-11-28T19:30:17.188Z,25.92
2022-11-28T19:33:18.792Z,19.38
2022-11-28T19:36:19.678Z,19.65
2022-11-28T19:39:25.108Z,21.65
2022-11-28T19:42:26.693Z,19.45
2022-11-28T19:45:28.002Z,20.17
2022-11-28T19:48:31.483Z,20.10
2022-11-28T19:51:33.273Z,23.20
2022-11-28T19:54:34.905Z,22.33
2022-11-28T19:57:38.280Z,27.02
2022-11-28T20:00:40.564Z,24.50
2022-11-28T20:03:47.800Z,22.30
2022-11-28T20:06:49.399Z,21.85
2022-11-28T20:09:50.442Z,21.60
2022-11-28T20:12:51.584Z,22.85
2022-11-28T20:15:52.856Z,19.08
2022-11-28T20:18:54.106Z,17.05
2022-11-28T20:21:59.011Z,24.52
2022-11-28T20:25:00.310Z,22.73
2022-11-28T20:28:01.571Z,24.40
2022-11-28T20:31:03.348Z,17.05
2022-11-28T20:34:06.666Z,17.58
2022-11-28T20:37:07.823Z,20.55
2022-11-28T20:40:09.912Z,18.63
2022-11-28T20:43:10.830Z,17.60
2022-11-28T20:46:15.132Z,22.40
2022-11-28T20:49:16.325Z,17.98
2022-11-28T20:52:17.222Z,20.13
2022-11-28T20:55:18.477Z,21.05
2022-11-28T20:58:19.128Z,17.75
2022-11-28T21:01:28.424Z,20.90
2022-11-28T21:04:29.439Z,18.38
2022-11-28T21:07:31.190Z,17.63
2022-11-28T21:10:33.914Z,17.65
2022-11-28T21:13:35.604Z,16.80
2022-11-28T21:16:36.881Z,14.10
2022-11-28T21:19:38.059Z,14.13
2022-11-28T21:22:38.912Z,13.65
2022-11-28T21:25:42.498Z,17.67
2022-11-28T21:28:46.810Z,14.23
2022-11-28T21:31:47.516Z,18.35
2022-11-28T21:34:48.761Z,19.40
2022-11-28T21:37:49.888Z,14.95
2022-11-28T21:40:54.394Z,19.98
2022-11-28T21:43:56.169Z,17.75
2022-11-28T21:46:56.919Z,18.10
2022-11-28T21:49:57.675Z,18.98
2022-11-28T21:52:58.374Z,18.00
2022-11-28T21:56:01.347Z,18.15
2022-11-28T21:59:02.411Z,15.32
2022-11-28T22:02:07.175Z,16.88
2022-11-28T22:05:10.782Z,15.75
2022-11-28T22:08:11.646Z,15.50
2022-11-28T22:11:13.523Z,17.92
2022-11-28T22:14:14.514Z,18.77
2022-11-28T22:17:15.384Z,21.40
2022-11-28T22:20:16.560Z,18.17
2022-11-28T22:23:18.878Z,19.50
2022-11-28T22:26:20.618Z,16.42
2022-11-28T22:29:21.734Z,18.63
2022-11-28T22:32:23.116Z,18.88
2022-11-28T22:35:24.345Z,17.35
2022-11-28T22:38:25.502Z,16.77
2022-11-28T22:41:29.281Z,18.73
2022-11-28T22:44:32.686Z,17.23
2022-11-28T22:47:33.992Z,14.52
2022-11-28T22:50:40.269Z,16.50
2022-11-28T22:53:42.135Z,15.57
2022-11-28T22:56:43.342Z,18.92
2022-11-28T22:59:44.551Z,15.07
2022-11-28T23:02:45.812Z,16.45
2022-11-28T23:05:49.336Z,13.77
2022-11-28T23:08:52.188Z,17.27
2022-11-28T23:11:53.408Z,15.60
2022-11-28T23:14:54.226Z,18.13
2022-11-28T23:17:55.364Z,16.35
2022-11-28T23:20:56.554Z,13.00
2022-11-28T23:23:58.038Z,14.05
2022-11-28T23:27:00.069Z,14.02
2022-11-28T23:30:01.286Z,15.85
2022-11-28T23:33:02.494Z,14.63
2022-11-28T23:36:17.542Z,13.38
2022-11-28T23:39:23.077Z,14.73
2022-11-28T23:42:24.036Z,12.77
2022-11-28T23:45:24.831Z,12.00
2022-11-28T23:48:26.213Z,12.15
2022-11-28T23:51:27.463Z,11.70
2022-11-28T23:54:28.447Z,13.88
2022-11-28T23:57:29.423Z,13.27
